createdAt,value
2018-04-14T00:01:15.638Z,14.60
2018-04-14T00:03:43.290Z,14.61
2018-04-14T00:06:10.966Z,14.64
2018-04-14T00:08:38.631Z,14.65
2018-04-14T00:11:06.279Z,14.67
2018-04-14T00:13:33.951Z,14.68
2018-04-14T00:16:01.563Z,14.66
2018-04-14T00:18:29.207Z,14.63
2018-04-14T00:20:56.825Z,14.60
2018-04-14T00:23:24.506Z,14.57
2018-04-14T00:25:52.163Z,14.52
2018-04-14T00:28:19.803Z,14.46
2018-04-14T00:30:47.430Z,14.41
2018-04-14T00:33:15.659Z,14.34
2018-04-14T00:35:43.274Z,14.27
2018-04-14T00:38:10.915Z,14.20
2018-04-14T00:40:38.532Z,14.10
2018-04-14T00:43:06.192Z,14.02
2018-04-14T00:45:33.872Z,13.96
2018-04-14T00:48:01.487Z,13.90
2018-04-14T00:50:29.195Z,13.84
2018-04-14T00:52:56.859Z,13.77
2018-04-14T00:55:24.498Z,13.73
2018-04-14T00:57:52.116Z,13.72
2018-04-14T01:00:19.854Z,13.71
2018-04-14T01:02:47.471Z,13.71
2018-04-14T01:05:15.107Z,13.70
2018-04-14T01:07:42.724Z,13.70
2018-04-14T01:10:10.363Z,13.68
2018-04-14T01:12:37.978Z,13.66
2018-04-14T01:15:05.622Z,13.65
2018-04-14T01:17:33.240Z,13.65
2018-04-14T01:20:00.938Z,13.63
2018-04-14T01:22:28.551Z,13.58
2018-04-14T01:24:56.194Z,13.54
2018-04-14T01:27:23.808Z,13.49
2018-04-14T01:29:51.476Z,13.43
2018-04-14T01:32:19.094Z,13.36
2018-04-14T01:34:46.919Z,13.31
2018-04-14T01:37:14.577Z,13.26
2018-04-14T01:39:42.191Z,13.20
2018-04-14T01:42:09.826Z,13.13
2018-04-14T01:44:37.440Z,13.05
2018-04-14T01:47:05.095Z,12.98
2018-04-14T01:49:32.719Z,12.92
2018-04-14T01:52:00.451Z,12.86
2018-04-14T01:54:28.115Z,12.81
2018-04-14T01:56:55.751Z,12.78
2018-04-14T01:59:23.367Z,12.74
2018-04-14T02:01:51.006Z,12.70
2018-04-14T02:04:18.663Z,12.68
2018-04-14T02:06:46.328Z,12.68
2018-04-14T02:09:13.942Z,12.68
2018-04-14T02:11:41.583Z,12.69
2018-04-14T02:14:09.204Z,12.71
2018-04-14T02:16:36.843Z,12.73
2018-04-14T02:19:04.535Z,12.76
2018-04-14T02:21:32.173Z,12.79
2018-04-14T02:23:59.958Z,12.81
2018-04-14T02:26:27.630Z,12.82
2018-04-14T02:28:55.243Z,12.84
2018-04-14T02:31:22.950Z,12.87
2018-04-14T02:33:50.614Z,12.89
2018-04-14T02:36:18.231Z,12.93
2018-04-14T02:38:45.943Z,12.96
2018-04-14T02:41:13.609Z,12.99
2018-04-14T02:43:41.246Z,13.02
2018-04-14T02:46:08.868Z,13.04
2018-04-14T02:48:36.511Z,13.07
2018-04-14T02:51:04.150Z,13.12
2018-04-14T02:53:31.819Z,13.15
2018-04-14T02:55:59.475Z,13.19
2018-04-14T02:58:27.139Z,13.20
2018-04-14T03:00:54.757Z,13.25
2018-04-14T03:03:22.396Z,13.27
2018-04-14T03:05:50.019Z,13.29
2018-04-14T03:08:17.659Z,13.28
2018-04-14T03:10:45.275Z,13.27
2018-04-14T03:13:12.911Z,13.27
2018-04-14T03:15:40.595Z,13.24
2018-04-14T03:18:08.235Z,13.25
2018-04-14T03:20:35.889Z,13.24
2018-04-14T03:23:03.528Z,13.24
2018-04-14T03:25:31.143Z,13.24
2018-04-14T03:27:58.882Z,13.24
2018-04-14T03:30:26.495Z,13.24
2018-04-14T03:32:54.215Z,13.23
2018-04-14T03:35:21.877Z,13.21
2018-04-14T03:37:49.535Z,13.19
2018-04-14T03:40:17.173Z,13.19
2018-04-14T03:42:44.859Z,13.18
2018-04-14T03:45:12.526Z,13.19
2018-04-14T03:47:40.141Z,13.18
2018-04-14T03:50:07.779Z,13.16
2018-04-14T03:52:35.414Z,13.17
2018-04-14T03:55:03.071Z,13.16
2018-04-14T03:57:30.734Z,13.17
2018-04-14T03:59:58.403Z,13.16
2018-04-14T04:02:26.027Z,13.15
2018-04-14T04:04:53.667Z,13.14
2018-04-14T04:07:21.282Z,13.13
2018-04-14T04:09:48.919Z,13.13
2018-04-14T04:12:16.535Z,13.10
2018-04-14T04:14:44.173Z,13.08
2018-04-14T04:17:11.816Z,13.07
2018-04-14T04:19:51.304Z,13.05
2018-04-14T04:22:30.707Z,13.05
2018-04-14T04:25:10.055Z,13.05
2018-04-14T04:27:37.711Z,13.05
2018-04-14T04:30:05.370Z,13.06
2018-04-14T04:32:33.019Z,13.06
2018-04-14T04:35:00.643Z,13.07
2018-04-14T04:37:28.278Z,13.10
2018-04-14T04:39:55.921Z,13.14
2018-04-14T04:42:23.570Z,13.16
2018-04-14T04:44:51.244Z,13.18
2018-04-14T04:47:18.885Z,13.21
2018-04-14T04:49:46.527Z,13.24
2018-04-14T04:52:14.230Z,13.28
2018-04-14T04:54:41.895Z,13.30
2018-04-14T04:57:09.552Z,13.33
2018-04-14T04:59:37.169Z,13.36
2018-04-14T05:02:04.815Z,13.35
2018-04-14T05:04:32.542Z,13.38
2018-04-14T05:07:00.180Z,13.39
2018-04-14T05:09:28.235Z,13.39
2018-04-14T05:11:55.873Z,13.40
2018-04-14T05:14:23.487Z,13.42
2018-04-14T05:16:51.131Z,13.42
2018-04-14T05:19:18.826Z,13.44
2018-04-14T05:21:46.474Z,13.46
2018-04-14T05:24:14.144Z,13.48
2018-04-14T05:26:41.814Z,13.50
2018-04-14T05:29:09.474Z,13.50
2018-04-14T05:31:37.242Z,13.52
2018-04-14T05:34:05.527Z,13.52
2018-04-14T05:36:33.147Z,13.54
2018-04-14T05:39:00.963Z,13.55
2018-04-14T05:41:28.607Z,13.55
2018-04-14T05:43:56.271Z,13.56
2018-04-14T05:46:23.935Z,13.57
2018-04-14T05:48:51.606Z,13.58
2018-04-14T05:51:19.224Z,13.56
2018-04-14T05:53:46.923Z,13.57
2018-04-14T05:56:14.567Z,13.57
2018-04-14T05:58:42.248Z,13.58
2018-04-14T06:01:09.863Z,13.57
2018-04-14T06:03:37.506Z,13.56
2018-04-14T06:06:05.236Z,13.56
2018-04-14T06:08:32.898Z,13.58
2018-04-14T06:11:00.515Z,13.59
2018-04-14T06:13:28.150Z,13.59
2018-04-14T06:15:55.783Z,13.61
2018-04-14T06:18:23.438Z,13.62
2018-04-14T06:20:51.050Z,13.64
2018-04-14T06:23:18.693Z,13.65
2018-04-14T06:25:46.311Z,13.66
2018-04-14T06:28:13.969Z,13.67
2018-04-14T06:30:41.591Z,13.69
2018-04-14T06:33:09.227Z,13.70
2018-04-14T06:35:36.869Z,13.73
2018-04-14T06:38:04.528Z,13.75
2018-04-14T06:40:32.144Z,13.77
2018-04-14T06:42:59.762Z,13.79
2018-04-14T06:45:27.406Z,13.82
2018-04-14T06:47:55.031Z,13.84
2018-04-14T06:50:22.751Z,13.86
2018-04-14T06:52:50.419Z,13.87
2018-04-14T06:55:18.092Z,13.87
2018-04-14T06:57:45.711Z,13.88
2018-04-14T07:00:13.346Z,13.90
2018-04-14T07:02:40.963Z,13.92
2018-04-14T07:05:08.598Z,13.93
2018-04-14T07:07:36.211Z,13.96
2018-04-14T07:10:03.858Z,13.97
2018-04-14T07:12:31.513Z,13.97
2018-04-14T07:14:59.275Z,13.99
2018-04-14T07:17:26.895Z,14.02
2018-04-14T07:19:54.599Z,14.03
2018-04-14T07:22:22.295Z,14.04
2018-04-14T07:24:49.930Z,13.98
2018-04-14T07:27:17.595Z,13.90
2018-04-14T07:29:45.250Z,13.81
2018-04-14T07:32:12.863Z,13.72
2018-04-14T07:34:40.504Z,13.63
2018-04-14T07:37:08.121Z,13.53
2018-04-14T07:39:35.799Z,13.42
2018-04-14T07:42:03.459Z,13.35
2018-04-14T07:44:31.124Z,13.29
2018-04-14T07:46:58.770Z,13.22
2018-04-14T07:49:27.150Z,13.15
2018-04-14T07:51:55.379Z,13.08
2018-04-14T07:54:23.145Z,13.01
2018-04-14T07:56:50.787Z,12.94
2018-04-14T07:59:18.403Z,12.88
2018-04-14T08:01:46.583Z,12.81
2018-04-14T08:04:14.271Z,12.75
2018-04-14T08:06:41.932Z,12.69
2018-04-14T08:09:09.595Z,12.63
2018-04-14T08:11:37.355Z,12.58
2018-04-14T08:14:04.918Z,12.55
2018-04-14T08:16:32.558Z,12.51
2018-04-14T08:19:00.178Z,12.48
2018-04-14T08:21:27.815Z,12.45
2018-04-14T08:23:55.434Z,12.43
2018-04-14T08:26:23.075Z,12.43
2018-04-14T08:28:50.687Z,12.42
2018-04-14T08:31:18.323Z,12.41
2018-04-14T08:33:45.942Z,12.40
2018-04-14T08:36:13.584Z,12.40
2018-04-14T08:38:41.203Z,12.39
2018-04-14T08:41:08.894Z,12.40
2018-04-14T08:43:36.509Z,12.39
2018-04-14T08:46:04.167Z,12.39
2018-04-14T08:48:31.783Z,12.39
2018-04-14T08:51:01.071Z,12.40
2018-04-14T08:53:28.712Z,12.42
2018-04-14T08:55:56.338Z,12.46
2018-04-14T08:58:24.070Z,12.53
2018-04-14T09:00:51.730Z,12.59
2018-04-14T09:03:19.405Z,12.65
2018-04-14T09:05:47.023Z,12.70
2018-04-14T09:08:14.719Z,12.80
2018-04-14T09:10:42.389Z,12.92
2018-04-14T09:13:10.032Z,13.03
2018-04-14T09:15:37.648Z,13.17
2018-04-14T09:18:05.291Z,13.29
2018-04-14T09:20:32.912Z,13.40
2018-04-14T09:23:00.591Z,13.56
2018-04-14T09:25:28.260Z,13.72
2018-04-14T09:27:55.922Z,13.84
2018-04-14T09:30:23.578Z,13.90
2018-04-14T09:32:51.208Z,13.95
2018-04-14T09:35:18.835Z,13.97
2018-04-14T09:37:46.467Z,13.97
2018-04-14T09:40:14.127Z,13.98
2018-04-14T09:42:41.762Z,13.98
2018-04-14T09:45:09.371Z,13.94
2018-04-14T09:47:37.094Z,13.91
2018-04-14T09:50:04.699Z,13.87
2018-04-14T09:52:32.333Z,13.81
2018-04-14T09:55:00.008Z,13.71
2018-04-14T09:57:27.671Z,13.61
2018-04-14T09:59:55.335Z,13.55
2018-04-14T10:02:27.376Z,13.48
2018-04-14T10:04:55.007Z,13.44
2018-04-14T10:07:22.619Z,13.39
2018-04-14T10:09:50.277Z,13.36
2018-04-14T10:12:17.943Z,13.32
2018-04-14T10:14:45.593Z,13.26
2018-04-14T10:17:13.211Z,13.24
2018-04-14T10:19:40.850Z,13.21
2018-04-14T10:22:08.454Z,13.20
2018-04-14T10:24:36.090Z,13.19
2018-04-14T10:27:04.801Z,13.16
2018-04-14T10:29:32.395Z,13.15
2018-04-14T10:32:00.055Z,13.17
2018-04-14T10:34:27.691Z,13.18
2018-04-14T10:36:55.307Z,13.22
2018-04-14T10:39:22.946Z,13.23
2018-04-14T10:41:50.611Z,13.24
2018-04-14T10:44:18.254Z,13.25
2018-04-14T10:46:45.867Z,13.22
2018-04-14T10:49:13.503Z,13.19
2018-04-14T10:51:41.115Z,13.17
2018-04-14T10:54:08.822Z,13.13
2018-04-14T10:56:36.439Z,13.12
2018-04-14T10:59:04.147Z,13.08
2018-04-14T11:01:31.758Z,13.08
2018-04-14T11:03:59.395Z,13.08
2018-04-14T11:06:27.014Z,13.07
2018-04-14T11:08:54.707Z,13.08
2018-04-14T11:11:22.362Z,13.10
2018-04-14T11:13:49.978Z,13.12
2018-04-14T11:16:17.618Z,13.13
2018-04-14T11:18:45.231Z,13.13
2018-04-14T11:21:12.906Z,13.14
2018-04-14T11:23:40.523Z,13.16
2018-04-14T11:26:08.163Z,13.18
2018-04-14T11:28:35.815Z,13.21
2018-04-14T11:31:03.456Z,13.23
2018-04-14T11:33:31.070Z,13.24
2018-04-14T11:35:58.710Z,13.24
2018-04-14T11:38:26.328Z,13.24
2018-04-14T11:40:54.164Z,13.24
2018-04-14T11:43:21.821Z,13.22
2018-04-14T11:45:49.541Z,13.19
2018-04-14T11:48:17.247Z,13.19
2018-04-14T11:50:45.055Z,13.19
2018-04-14T11:53:12.678Z,13.19
2018-04-14T11:55:40.635Z,13.21
2018-04-14T11:58:08.259Z,13.23
2018-04-14T12:00:35.899Z,13.24
2018-04-14T12:03:03.516Z,13.23
2018-04-14T12:05:31.242Z,13.23
2018-04-14T12:07:58.864Z,13.21
2018-04-14T12:10:26.503Z,13.21
2018-04-14T12:12:54.131Z,13.22
2018-04-14T12:15:21.771Z,13.23
2018-04-14T12:17:49.388Z,13.22
2018-04-14T12:20:17.119Z,13.22
2018-04-14T12:22:44.783Z,13.23
2018-04-14T12:25:12.398Z,13.23
2018-04-14T12:27:40.035Z,13.24
2018-04-14T12:30:07.647Z,13.25
2018-04-14T12:32:35.282Z,13.26
2018-04-14T12:35:02.895Z,13.28
2018-04-14T12:37:30.551Z,13.29
2018-04-14T12:39:58.310Z,13.29
2018-04-14T12:42:25.963Z,13.31
2018-04-14T12:44:53.611Z,13.30
2018-04-14T12:47:21.303Z,13.31
2018-04-14T12:49:48.966Z,13.33
2018-04-14T12:52:16.602Z,13.34
2018-04-14T12:54:44.220Z,13.37
2018-04-14T12:57:11.863Z,13.43
2018-04-14T12:59:39.484Z,13.47
2018-04-14T13:02:07.123Z,13.51
2018-04-14T13:04:34.738Z,13.56
2018-04-14T13:07:02.493Z,13.59
2018-04-14T13:09:30.111Z,13.65
2018-04-14T13:11:57.810Z,13.70
2018-04-14T13:14:25.507Z,13.76
2018-04-14T13:16:53.154Z,13.84
2018-04-14T13:19:21.895Z,13.94
2018-04-14T13:21:49.536Z,14.05
2018-04-14T13:24:17.272Z,14.14
2018-04-14T13:26:45.031Z,14.21
2018-04-14T13:29:12.758Z,14.29
2018-04-14T13:31:40.459Z,14.35
2018-04-14T13:34:08.079Z,14.37
2018-04-14T13:36:35.879Z,14.39
2018-04-14T13:39:03.551Z,14.41
2018-04-14T13:41:31.212Z,14.42
2018-04-14T13:43:58.874Z,14.46
2018-04-14T13:46:26.501Z,14.52
2018-04-14T13:48:54.151Z,14.59
2018-04-14T13:51:21.763Z,14.66
2018-04-14T13:53:49.423Z,14.73
2018-04-14T13:56:17.038Z,14.84
2018-04-14T13:58:44.675Z,14.95
2018-04-14T14:01:12.307Z,15.04
2018-04-14T14:03:39.979Z,15.08
2018-04-14T14:06:07.595Z,15.12
2018-04-14T14:08:35.230Z,15.18
2018-04-14T14:11:02.966Z,15.22
2018-04-14T14:13:30.622Z,15.22
2018-04-14T14:15:58.239Z,15.25
2018-04-14T14:18:26.142Z,15.27
2018-04-14T14:20:53.758Z,15.28
2018-04-14T14:23:21.471Z,15.29
2018-04-14T14:25:49.107Z,15.27
2018-04-14T14:28:16.799Z,15.22
2018-04-14T14:30:44.463Z,15.19
2018-04-14T14:33:12.116Z,15.16
2018-04-14T14:35:39.882Z,15.11
2018-04-14T14:38:07.648Z,15.08
2018-04-14T14:40:35.264Z,15.06
2018-04-14T14:43:02.907Z,15.04
2018-04-14T14:45:30.523Z,15.03
2018-04-14T14:47:58.153Z,15.02
2018-04-14T14:50:28.659Z,14.99
2018-04-14T14:52:56.275Z,14.96
2018-04-14T14:55:23.919Z,14.92
2018-04-14T14:57:51.543Z,14.89
2018-04-14T15:00:19.727Z,14.89
2018-04-14T15:02:48.131Z,14.89
2018-04-14T15:05:15.849Z,14.88
2018-04-14T15:07:43.503Z,14.87
2018-04-14T15:10:11.143Z,14.85
2018-04-14T15:12:38.763Z,14.80
2018-04-14T15:15:06.406Z,14.74
2018-04-14T15:17:34.714Z,14.70
2018-04-14T15:20:02.521Z,14.69
2018-04-14T15:22:30.215Z,14.68
2018-04-14T15:24:58.050Z,14.67
2018-04-14T15:27:25.669Z,14.64
2018-04-14T15:29:53.315Z,14.61
2018-04-14T15:32:20.947Z,14.56
2018-04-14T15:34:48.591Z,14.54
2018-04-14T15:37:16.266Z,14.53
2018-04-14T15:39:43.934Z,14.55
2018-04-14T15:42:11.596Z,14.56
2018-04-14T15:44:39.256Z,14.58
2018-04-14T15:47:06.871Z,14.59
2018-04-14T15:49:34.536Z,14.60
2018-04-14T15:52:02.316Z,14.56
2018-04-14T15:54:30.064Z,14.52
2018-04-14T15:56:57.763Z,14.48
2018-04-14T15:59:25.387Z,14.46
2018-04-14T16:01:53.197Z,14.45
2018-04-14T16:04:20.959Z,14.43
2018-04-14T16:06:48.717Z,14.43
2018-04-14T16:09:17.240Z,14.42
2018-04-14T16:11:44.978Z,14.38
2018-04-14T16:14:12.735Z,14.36
2018-04-14T16:16:40.435Z,14.32
2018-04-14T16:19:08.070Z,14.27
2018-04-14T16:21:35.832Z,14.21
2018-04-14T16:24:03.476Z,14.18
2018-04-14T16:26:31.123Z,14.14
2018-04-14T16:28:58.740Z,14.11
2018-04-14T16:31:26.485Z,14.09
2018-04-14T16:33:54.150Z,14.05
2018-04-14T16:36:21.811Z,13.99
2018-04-14T16:38:49.427Z,13.94
2018-04-14T16:41:17.134Z,13.87
2018-04-14T16:43:44.752Z,13.79
2018-04-14T16:46:12.391Z,13.72
2018-04-14T16:48:40.024Z,13.65
2018-04-14T16:51:07.674Z,13.57
2018-04-14T16:53:35.290Z,13.49
2018-04-14T16:56:02.932Z,13.45
2018-04-14T16:58:30.571Z,13.39
2018-04-14T17:00:58.198Z,13.36
2018-04-14T17:03:25.826Z,13.31
2018-04-14T17:05:53.456Z,13.26
2018-04-14T17:08:21.109Z,13.23
2018-04-14T17:10:48.982Z,13.19
2018-04-14T17:13:16.628Z,13.15
2018-04-14T17:15:44.239Z,13.12
2018-04-14T17:18:11.884Z,13.09
2018-04-14T17:20:39.531Z,13.07
2018-04-14T17:23:07.167Z,13.05
2018-04-14T17:25:34.774Z,13.04
2018-04-14T17:28:02.424Z,13.02
2018-04-14T17:30:30.042Z,12.99
2018-04-14T17:32:57.674Z,12.97
2018-04-14T17:35:25.284Z,12.95
2018-04-14T17:37:52.918Z,12.92
2018-04-14T17:40:20.539Z,12.90
2018-04-14T17:42:48.179Z,12.88
2018-04-14T17:45:15.799Z,12.86
2018-04-14T17:47:43.447Z,12.83
2018-04-14T17:50:11.076Z,12.80
2018-04-14T17:52:38.752Z,12.79
2018-04-14T17:55:06.381Z,12.78
2018-04-14T17:57:34.070Z,12.78
2018-04-14T18:00:01.779Z,12.77
2018-04-14T18:02:29.470Z,12.76
2018-04-14T18:04:57.062Z,12.74
2018-04-14T18:07:24.814Z,12.73
2018-04-14T18:09:52.480Z,12.75
2018-04-14T18:12:20.139Z,12.77
2018-04-14T18:14:47.803Z,12.77
2018-04-14T18:17:15.560Z,12.78
2018-04-14T18:19:43.265Z,12.77
2018-04-14T18:22:10.879Z,12.77
2018-04-14T18:24:38.541Z,12.77
2018-04-14T18:27:06.155Z,12.77
2018-04-14T18:29:33.799Z,12.76
2018-04-14T18:32:01.447Z,12.75
2018-04-14T18:34:29.112Z,12.73
2018-04-14T18:36:56.766Z,12.69
2018-04-14T18:39:24.410Z,12.66
2018-04-14T18:41:52.031Z,12.64
2018-04-14T18:44:19.675Z,12.63
2018-04-14T18:46:47.292Z,12.63
2018-04-14T18:49:14.933Z,12.62
2018-04-14T18:51:42.643Z,12.60
2018-04-14T18:54:10.288Z,12.58
2018-04-14T18:56:37.963Z,12.56
2018-04-14T18:59:05.602Z,12.53
2018-04-14T19:01:33.219Z,12.49
2018-04-14T19:04:00.951Z,12.44
2018-04-14T19:06:28.616Z,12.41
2018-04-14T19:08:56.275Z,12.38
2018-04-14T19:11:23.908Z,12.32
2018-04-14T19:13:51.600Z,12.26
2018-04-14T19:16:19.239Z,12.16
2018-04-14T19:18:46.855Z,12.12
2018-04-14T19:21:14.492Z,12.05
2018-04-14T19:23:42.119Z,11.99
2018-04-14T19:26:09.776Z,11.92
2018-04-14T19:28:37.403Z,11.83
2018-04-14T19:31:05.040Z,11.75
2018-04-14T19:33:32.699Z,11.67
2018-04-14T19:36:00.362Z,11.62
2018-04-14T19:38:28.023Z,11.58
2018-04-14T19:40:55.672Z,11.58
2018-04-14T19:43:23.344Z,11.58
2018-04-14T19:45:50.959Z,11.57
2018-04-14T19:48:18.674Z,11.56
2018-04-14T19:50:46.339Z,11.54
2018-04-14T19:53:14.478Z,11.52
2018-04-14T19:55:42.179Z,11.48
2018-04-14T19:58:09.802Z,11.43
2018-04-14T20:00:37.503Z,11.38
2018-04-14T20:03:05.118Z,11.32
2018-04-14T20:05:32.758Z,11.28
2018-04-14T20:08:00.395Z,11.24
2018-04-14T20:10:28.011Z,11.20
2018-04-14T20:12:55.648Z,11.15
2018-04-14T20:15:23.372Z,11.10
2018-04-14T20:17:51.014Z,11.05
2018-04-14T20:20:18.627Z,11.01
2018-04-14T20:22:46.271Z,10.99
2018-04-14T20:25:13.939Z,10.97
2018-04-14T20:27:41.589Z,10.94
2018-04-14T20:30:09.257Z,10.93
2018-04-14T20:32:36.903Z,10.91
2018-04-14T20:35:04.610Z,10.93
2018-04-14T20:37:32.335Z,10.95
2018-04-14T20:39:59.999Z,10.97
2018-04-14T20:42:27.643Z,11.00
2018-04-14T20:44:55.327Z,11.02
2018-04-14T20:47:22.967Z,11.06
2018-04-14T20:49:50.584Z,11.07
2018-04-14T20:52:18.223Z,11.08
2018-04-14T20:54:45.966Z,11.10
2018-04-14T20:57:13.627Z,11.09
2018-04-14T20:59:41.243Z,11.10
2018-04-14T21:02:08.888Z,11.11
2018-04-14T21:04:36.527Z,11.12
2018-04-14T21:07:04.168Z,11.13
2018-04-14T21:09:31.846Z,11.15
2018-04-14T21:11:59.491Z,11.17
2018-04-14T21:14:27.126Z,11.19
2018-04-14T21:16:54.835Z,11.20
2018-04-14T21:19:22.583Z,11.21
2018-04-14T21:21:50.195Z,11.20
2018-04-14T21:24:17.835Z,11.22
2018-04-14T21:26:45.500Z,11.21
2018-04-14T21:29:13.147Z,11.21
2018-04-14T21:31:40.771Z,11.21
2018-04-14T21:34:08.411Z,11.21
2018-04-14T21:36:36.039Z,11.22
2018-04-14T21:39:03.682Z,11.20
2018-04-14T21:41:31.361Z,11.19
2018-04-14T21:43:59.023Z,11.18
2018-04-14T21:46:26.638Z,11.16
2018-04-14T21:48:54.279Z,11.15
2018-04-14T21:51:21.892Z,11.14
2018-04-14T21:53:49.555Z,11.13
2018-04-14T21:56:17.180Z,11.12
2018-04-14T21:58:44.815Z,11.11
2018-04-14T22:01:15.184Z,11.10
2018-04-14T22:03:42.835Z,11.08
2018-04-14T22:06:10.459Z,11.05
2018-04-14T22:08:38.100Z,11.05
2018-04-14T22:11:05.862Z,11.05
2018-04-14T22:13:33.503Z,11.03
2018-04-14T22:16:01.171Z,11.01
2018-04-14T22:18:28.819Z,10.98
2018-04-14T22:20:56.444Z,10.94
2018-04-14T22:23:24.083Z,10.90
2018-04-14T22:25:51.703Z,10.84
2018-04-14T22:28:19.351Z,10.79
2018-04-14T22:30:46.966Z,10.74
2018-04-14T22:33:14.582Z,10.70
2018-04-14T22:35:42.239Z,10.67
2018-04-14T22:38:09.955Z,10.64
2018-04-14T22:40:37.597Z,10.62
2018-04-14T22:43:05.287Z,10.60
2018-04-14T22:45:32.947Z,10.56
2018-04-14T22:48:00.563Z,10.51
2018-04-14T22:50:28.266Z,10.47
2018-04-14T22:52:55.882Z,10.42
2018-04-14T22:55:23.670Z,10.37
2018-04-14T22:57:51.359Z,10.34
2018-04-14T23:00:18.994Z,10.30
2018-04-14T23:02:46.623Z,10.27
2018-04-14T23:05:14.267Z,10.25
2018-04-14T23:07:41.892Z,10.23
2018-04-14T23:10:09.530Z,10.22
2018-04-14T23:12:37.144Z,10.23
2018-04-14T23:15:04.783Z,10.25
2018-04-14T23:17:32.459Z,10.26
2018-04-14T23:20:00.102Z,10.26
2018-04-14T23:22:27.715Z,10.27
2018-04-14T23:24:55.351Z,10.27
2018-04-14T23:27:22.968Z,10.28
2018-04-14T23:29:50.607Z,10.29
2018-04-14T23:32:18.318Z,10.29
2018-04-14T23:34:46.082Z,10.30
2018-04-14T23:37:13.745Z,10.31
2018-04-14T23:39:41.383Z,10.33
2018-04-14T23:42:09.078Z,10.35
2018-04-14T23:44:36.728Z,10.35
2018-04-14T23:47:04.402Z,10.34
2018-04-14T23:49:32.063Z,10.34
2018-04-14T23:51:59.686Z,10.34
2018-04-14T23:54:27.307Z,10.34
2018-04-14T23:56:54.942Z,10.33
2018-04-14T23:59:22.558Z,10.31
